Time;durP1;ratioP1;P1;durP2;ratioP2;P2;SDS_P1;SDS_P2;PMS_P1;PMS_P2;Temp;Humidity;BMP_temperature;BMP_pressure;BME280_temperature;BME280_humidity;BME280_pressure;Samples;Min_cycle;Max_cycle;Signal;HPM_P1;HPM_P2
2021/05/28 04:02:46;;;;;;;10.40;6.50;;;9.50;99.90;;;;;;4877368;29;20555;-66
2021/05/28 04:05:14;;;;;;;7.35;6.45;;;9.50;99.90;;;;;;4880241;29;20571;-67
2021/05/28 04:07:41;;;;;;;9.30;6.82;;;9.50;99.90;;;;;;4879855;29;20276;-66
2021/05/28 04:10:08;;;;;;;7.85;6.53;;;9.50;99.90;;;;;;4879984;29;20222;-67
2021/05/28 04:12:34;;;;;;;7.10;6.43;;;9.50;99.90;;;;;;4898191;29;20548;-66
2021/05/28 04:15:00;;;;;;;6.82;6.03;;;9.50;99.90;;;;;;4905883;29;20275;-66
2021/05/28 04:17:27;;;;;;;6.93;6.43;;;9.60;99.90;;;;;;4898125;29;20227;-69
2021/05/28 04:19:54;;;;;;;8.07;5.95;;;9.70;99.90;;;;;;4898501;29;20211;-69
2021/05/28 04:22:20;;;;;;;7.03;5.57;;;9.80;99.90;;;;;;4897645;29;20304;-69
2021/05/28 04:24:46;;;;;;;6.28;5.65;;;10.40;99.90;;;;;;4898251;29;20559;-69
2021/05/28 04:27:12;;;;;;;4.25;4.00;;;11.00;99.90;;;;;;4897966;29;20215;-69
2021/05/28 04:29:39;;;;;;;3.70;3.42;;;11.80;99.90;;;;;;4897938;29;20215;-69
2021/05/28 04:32:05;;;;;;;3.70;3.43;;;12.40;99.90;;;;;;4896991;29;20234;-69
2021/05/28 04:34:33;;;;;;;3.60;3.40;;;13.30;99.90;;;;;;4898580;29;20471;-69
2021/05/28 04:37:00;;;;;;;3.60;3.40;;;13.90;99.90;;;;;;4897826;29;20869;-69
2021/05/28 04:39:27;;;;;;;3.30;3.00;;;14.20;99.90;;;;;;4898000;29;20471;-69
2021/05/28 04:41:53;;;;;;;3.70;3.47;;;14.20;99.90;;;;;;4897871;29;20491;-68
2021/05/28 04:44:19;;;;;;;3.67;3.47;;;14.00;99.90;;;;;;4897847;29;20550;-69
2021/05/28 04:46:45;;;;;;;3.40;3.03;;;13.70;99.90;;;;;;4897270;29;20829;-68
2021/05/28 04:49:11;;;;;;;3.90;3.50;;;14.10;99.90;;;;;;4897941;29;20474;-69
2021/05/28 04:51:38;;;;;;;3.30;3.10;;;14.40;99.90;;;;;;4897536;29;20492;-68
2021/05/28 04:54:05;;;;;;;3.17;3.07;;;14.80;99.90;;;;;;4897576;29;20474;-69
2021/05/28 04:56:32;;;;;;;3.90;3.60;;;15.10;99.90;;;;;;4897359;29;20514;-68
2021/05/28 04:58:58;;;;;;;2.97;2.83;;;15.40;99.90;;;;;;4898029;29;20475;-68
2021/05/28 05:01:24;;;;;;;3.43;3.03;;;15.50;99.90;;;;;;4898175;29;20565;-68
2021/05/28 05:03:50;;;;;;;4.03;2.90;;;15.70;99.90;;;;;;4897224;29;20959;-68
2021/05/28 05:06:17;;;;;;;3.60;3.40;;;15.90;99.90;;;;;;4897393;29;20486;-66
2021/05/28 05:08:43;;;;;;;2.60;2.60;;;16.00;99.90;;;;;;4897404;29;20468;-68
2021/05/28 05:11:10;;;;;;;3.40;3.30;;;16.30;99.90;;;;;;4896978;29;20491;-68
2021/05/28 05:13:36;;;;;;;3.43;3.23;;;16.50;99.90;;;;;;4897872;29;20464;-66
2021/05/28 05:16:03;;;;;;;3.57;3.27;;;16.70;99.90;;;;;;4897276;29;20491;-68
2021/05/28 05:18:30;;;;;;;3.93;3.67;;;16.70;99.90;;;;;;4896883;29;20467;-67
2021/05/28 05:20:56;;;;;;;4.70;3.00;;;17.00;99.90;;;;;;4897461;29;20891;-66
2021/05/28 05:23:22;;;;;;;2.60;2.50;;;17.20;99.90;;;;;;4896745;29;20471;-66
2021/05/28 05:25:49;;;;;;;3.20;3.00;;;17.40;99.90;;;;;;4897162;29;20479;-66
2021/05/28 05:28:16;;;;;;;3.30;3.20;;;17.40;99.90;;;;;;4896982;29;20515;-66
2021/05/28 05:30:42;;;;;;;3.33;3.00;;;17.20;99.90;;;;;;4897187;29;20867;-67
2021/05/28 05:33:09;;;;;;;2.87;2.77;;;17.50;99.90;;;;;;4895919;29;20471;-67
2021/05/28 05:35:35;;;;;;;2.40;2.30;;;17.60;99.90;;;;;;4897183;29;20559;-67
2021/05/28 05:38:03;;;;;;;3.20;3.10;;;17.60;99.90;;;;;;4896691;29;20550;-67
2021/05/28 05:40:30;;;;;;;3.43;3.30;;;17.50;99.90;;;;;;4896848;29;20890;-67
2021/05/28 05:42:56;;;;;;;3.40;3.20;;;17.70;99.90;;;;;;4896701;29;20475;-67
2021/05/28 05:45:23;;;;;;;3.70;2.73;;;17.90;99.90;;;;;;4896972;29;20546;-67
2021/05/28 05:47:49;;;;;;;3.40;3.10;;;17.70;99.90;;;;;;4896030;29;20471;-68
2021/05/28 05:50:16;;;;;;;3.40;3.20;;;17.80;99.90;;;;;;4896892;29;20562;-67
2021/05/28 05:52:42;;;;;;;3.10;2.93;;;17.80;99.90;;;;;;4896576;29;20845;-69
2021/05/28 05:55:09;;;;;;;3.13;2.93;;;18.20;99.90;;;;;;4897251;29;20522;-69
2021/05/28 05:57:35;;;;;;;3.17;2.93;;;18.40;99.90;;;;;;4896922;29;20622;-67
2021/05/28 06:00:01;;;;;;;3.47;2.87;;;18.40;99.90;;;;;;4897033;29;20463;-67
2021/05/28 06:02:28;;;;;;;3.07;2.93;;;18.50;99.90;;;;;;4895966;29;20519;-67
2021/05/28 06:04:54;;;;;;;3.57;3.20;;;18.60;99.90;;;;;;4897417;29;20471;-67
2021/05/28 06:07:21;;;;;;;3.30;3.00;;;19.00;99.90;;;;;;4896908;29;20808;-67
2021/05/28 06:09:47;;;;;;;3.43;3.13;;;19.20;99.90;;;;;;4896917;29;20510;-67
2021/05/28 06:12:13;;;;;;;3.10;2.90;;;19.40;99.90;;;;;;4896609;29;20559;-67
2021/05/28 06:14:39;;;;;;;2.63;2.53;;;19.40;99.90;;;;;;4897080;29;20471;-67
2021/05/28 06:17:05;;;;;;;3.13;2.83;;;19.50;99.90;;;;;;4895934;29;20975;-66
2021/05/28 06:19:32;;;;;;;4.13;3.23;;;19.30;99.90;;;;;;4897182;29;20478;-67
2021/05/28 06:21:58;;;;;;;2.67;2.47;;;19.50;99.90;;;;;;4896983;29;20506;-68
2021/05/28 06:24:25;;;;;;;2.53;2.43;;;19.80;99.90;;;;;;4900965;29;20831;-67
2021/05/28 06:26:51;;;;;;;3.00;2.80;;;19.80;99.90;;;;;;4900642;29;20459;-67
2021/05/28 06:29:17;;;;;;;3.30;2.80;;;20.00;99.90;;;;;;4903293;29;20476;-69
2021/05/28 06:31:43;;;;;;;5.00;2.60;;;20.00;99.90;;;;;;4899428;29;20487;-69
2021/05/28 06:34:10;;;;;;;3.10;2.90;;;20.10;99.90;;;;;;4900131;29;20928;-69
2021/05/28 06:36:37;;;;;;;3.13;3.03;;;19.90;99.90;;;;;;4899926;29;20487;-67
2021/05/28 06:39:04;;;;;;;2.63;2.43;;;19.80;99.90;;;;;;4900344;29;20523;-67
2021/05/28 06:41:30;;;;;;;3.87;3.03;;;19.70;99.90;;;;;;4901471;29;20570;-69
2021/05/28 06:43:57;;;;;;;2.63;2.60;;;19.80;99.90;;;;;;4901028;29;20558;-67
2021/05/28 06:46:23;;;;;;;3.27;2.60;;;19.90;99.90;;;;;;4899812;29;20475;-67
2021/05/28 06:48:49;;;;;;;3.60;3.30;;;20.10;99.90;;;;;;4899228;29;20471;-67
2021/05/28 06:51:15;;;;;;;3.60;3.40;;;20.10;99.90;;;;;;4899529;29;20920;-69
2021/05/28 06:53:42;;;;;;;6.43;5.93;;;20.30;99.90;;;;;;4899478;29;20467;-67
2021/05/28 06:56:08;;;;;;;4.53;4.33;;;20.30;99.90;;;;;;4899625;29;20487;-67
2021/05/28 06:58:35;;;;;;;5.43;4.17;;;20.70;99.90;;;;;;4899655;29;20877;-66
2021/05/28 07:01:01;;;;;;;3.70;3.50;;;20.20;99.90;;;;;;4899648;29;20495;-66
2021/05/28 07:03:27;;;;;;;4.23;4.03;;;19.20;99.90;;;;;;4898427;29;20533;-69
2021/05/28 07:05:53;;;;;;;3.47;3.37;;;18.30;99.90;;;;;;4900034;29;20471;-69
2021/05/28 07:08:20;;;;;;;4.10;3.77;;;17.60;99.90;;;;;;4900527;29;20827;-69
2021/05/28 07:10:47;;;;;;;4.60;4.27;;;17.00;99.90;;;;;;4900545;29;20491;-68
2021/05/28 07:13:13;;;;;;;3.90;3.70;;;16.60;99.90;;;;;;4899395;29;20471;-66
2021/05/28 07:15:39;;;;;;;4.10;3.90;;;16.10;99.90;;;;;;4899481;29;20483;-66
2021/05/28 07:18:05;;;;;;;4.50;4.10;;;15.70;99.90;;;;;;4898263;29;20503;-68
2021/05/28 07:20:32;;;;;;;4.37;4.10;;;15.60;99.90;;;;;;4899147;29;20488;-66
2021/05/28 07:22:58;;;;;;;4.27;4.07;;;15.50;99.90;;;;;;4899203;29;20459;-66
2021/05/28 07:25:25;;;;;;;6.00;4.20;;;15.40;99.90;;;;;;4899428;29;20478;-67
2021/05/28 07:27:53;;;;;;;4.43;4.20;;;16.20;99.90;;;;;;4898998;29;20558;-67
2021/05/28 07:30:19;;;;;;;4.10;3.90;;;16.40;99.90;;;;;;4899128;29;20550;-66
2021/05/28 07:32:46;;;;;;;4.80;4.40;;;16.60;99.90;;;;;;4898079;29;20479;-66
2021/05/28 07:35:13;;;;;;;4.97;4.50;;;16.30;99.90;;;;;;4898525;29;20518;-66
2021/05/28 07:37:39;;;;;;;5.33;4.83;;;16.00;99.90;;;;;;4899137;29;20511;-66
2021/05/28 07:40:07;;;;;;;4.40;4.20;;;15.90;99.90;;;;;;4899251;29;20464;-66
2021/05/28 07:42:33;;;;;;;4.47;4.20;;;15.60;99.90;;;;;;4899419;29;20817;-66
2021/05/28 07:45:01;;;;;;;4.53;4.17;;;15.50;99.90;;;;;;4900253;29;20718;-67
2021/05/28 07:47:27;;;;;;;5.17;4.87;;;15.20;99.90;;;;;;4898103;29;20476;-66
2021/05/28 07:49:53;;;;;;;6.60;6.00;;;14.90;99.90;;;;;;4898669;29;20912;-66
2021/05/28 07:52:19;;;;;;;6.23;5.73;;;14.80;99.90;;;;;;4898485;29;20582;-66
2021/05/28 07:54:45;;;;;;;5.70;5.20;;;14.50;99.90;;;;;;4898772;29;20463;-66
2021/05/28 07:57:11;;;;;;;5.60;5.20;;;14.50;99.90;;;;;;4898280;29;20494;-69
2021/05/28 07:59:38;;;;;;;5.40;5.10;;;14.30;99.90;;;;;;4898314;29;20809;-69
2021/05/28 08:02:05;;;;;;;5.03;4.60;;;14.00;99.90;;;;;;4897258;29;20838;-68
2021/05/28 08:04:31;;;;;;;5.87;5.37;;;14.00;99.90;;;;;;4898627;29;20877;-69
2021/05/28 08:06:57;;;;;;;5.60;5.20;;;13.80;99.90;;;;;;4898334;29;20865;-69
2021/05/28 08:09:23;;;;;;;5.43;4.90;;;13.60;99.90;;;;;;4899533;29;20777;-69
2021/05/28 08:11:50;;;;;;;6.30;5.80;;;13.50;99.90;;;;;;4899239;29;20891;-68
2021/05/28 08:14:16;;;;;;;5.90;5.50;;;13.50;99.90;;;;;;4899141;29;20471;-69
2021/05/28 08:16:42;;;;;;;6.03;5.63;;;13.50;99.90;;;;;;4900257;29;21039;-67
2021/05/28 08:19:10;;;;;;;4.93;4.63;;;13.50;99.90;;;;;;4906720;29;20207;-66
2021/05/28 08:21:36;;;;;;;5.93;5.43;;;13.50;99.90;;;;;;4898155;29;20491;-66
2021/05/28 08:24:02;;;;;;;5.70;5.20;;;13.40;99.90;;;;;;4898287;29;20468;-67
2021/05/28 08:26:28;;;;;;;6.40;5.80;;;13.30;99.90;;;;;;4898399;29;20471;-67
2021/05/28 08:28:54;;;;;;;5.10;4.80;;;13.30;99.90;;;;;;4897995;29;20278;-67
2021/05/28 08:31:21;;;;;;;9.20;6.50;;;13.20;99.90;;;;;;4897596;29;20617;-70
2021/05/28 08:33:47;;;;;;;6.47;5.50;;;13.10;99.90;;;;;;4897556;29;20208;-70
2021/05/28 08:36:14;;;;;;;7.82;5.35;;;13.10;99.90;;;;;;4898163;29;20547;-70
2021/05/28 08:38:40;;;;;;;5.32;4.85;;;13.00;99.90;;;;;;4897935;29;20214;-70
2021/05/28 08:41:06;;;;;;;6.40;5.90;;;13.00;99.90;;;;;;4897627;29;20234;-69
2021/05/28 08:43:33;;;;;;;6.65;5.93;;;13.00;99.90;;;;;;4897606;29;20499;-69
2021/05/28 08:46:01;;;;;;;5.13;4.60;;;13.10;99.90;;;;;;4898219;29;20223;-70
2021/05/28 08:48:28;;;;;;;5.73;5.23;;;13.10;99.90;;;;;;4897224;29;20554;-67
2021/05/28 08:50:54;;;;;;;6.27;5.77;;;13.20;99.90;;;;;;4897695;29;21063;-66
2021/05/28 08:53:24;;;;;;;8.47;6.23;;;13.40;99.90;;;;;;4897512;29;20467;-66
2021/05/28 08:55:50;;;;;;;6.20;5.60;;;13.70;99.90;;;;;;4898157;29;20833;-66
2021/05/28 08:58:18;;;;;;;8.10;6.77;;;13.80;99.90;;;;;;4897317;29;20495;-66
2021/05/28 09:00:46;;;;;;;5.93;5.40;;;13.80;99.90;;;;;;4897437;29;20501;-66
2021/05/28 09:03:24;;;;;;;6.20;5.70;;;13.70;99.90;;;;;;4896473;29;20924;-67
2021/05/28 09:05:52;;;;;;;10.97;8.00;;;13.70;99.90;;;;;;4897452;29;21007;-67
2021/05/28 09:08:25;;;;;;;5.27;4.77;;;13.40;99.90;;;;;;4897387;29;20475;-67
2021/05/28 09:10:53;;;;;;;6.83;5.63;;;13.50;99.90;;;;;;4897458;29;20494;-68
2021/05/28 09:13:23;;;;;;;7.23;5.60;;;13.50;99.90;;;;;;4897394;29;20957;-67
2021/05/28 09:16:05;;;;;;;7.40;6.07;;;13.50;99.90;;;;;;4897807;29;20444;-67
2021/05/28 09:18:47;;;;;;;6.80;5.30;;;13.80;99.90;;;;;;4896953;29;20463;-69
2021/05/28 09:21:18;;;;;;;6.60;5.33;;;14.00;99.90;;;;;;4897457;29;20491;-68
2021/05/28 09:23:46;;;;;;;7.63;5.90;;;14.30;99.90;;;;;;4897593;29;20475;-69
2021/05/28 09:26:12;;;;;;;8.83;7.00;;;14.40;99.90;;;;;;4897401;29;20948;-70
2021/05/28 09:28:43;;;;;;;8.07;7.27;;;14.50;99.90;;;;;;4897374;29;20538;-67
2021/05/28 09:31:14;;;;;;;6.87;6.27;;;14.50;99.90;;;;;;4897701;29;20523;-69
2021/05/28 09:33:42;;;;;;;6.33;5.83;;;14.50;99.90;;;;;;4898605;29;20499;-66
2021/05/28 09:36:10;;;;;;;5.93;5.43;;;14.50;99.90;;;;;;4897330;29;20662;-67
2021/05/28 09:38:38;;;;;;;7.13;5.30;;;14.50;99.90;;;;;;4897197;29;20471;-66
2021/05/28 09:41:05;;;;;;;7.97;5.73;;;14.50;99.90;;;;;;4897575;29;20498;-68
2021/05/28 09:43:32;;;;;;;7.30;5.60;;;14.30;99.90;;;;;;4897302;29;20498;-66
2021/05/28 09:45:59;;;;;;;5.73;5.20;;;14.30;99.90;;;;;;4897283;29;20490;-67
2021/05/28 09:48:30;;;;;;;6.00;5.17;;;14.30;99.90;;;;;;4896273;29;20852;-68
2021/05/28 09:50:58;;;;;;;5.37;4.97;;;14.40;99.90;;;;;;4897227;29;20497;-66
2021/05/28 09:53:32;;;;;;;6.40;5.60;;;14.50;99.90;;;;;;4896834;29;20479;-67
2021/05/28 09:56:00;;;;;;;9.80;6.00;;;14.50;99.90;;;;;;4897410;29;20471;-67
2021/05/28 09:58:54;;;;;;;6.17;5.57;;;14.50;99.90;;;;;;4899116;29;20491;-68
2021/05/28 10:01:20;;;;;;;7.13;5.40;;;14.80;99.90;;;;;;4900542;29;21018;-68
2021/05/28 10:03:59;;;;;;;7.03;5.57;;;15.00;99.90;;;;;;4900156;29;20505;-67
2021/05/28 10:06:28;;;;;;;8.33;5.50;;;15.00;99.90;;;;;;4900852;29;20479;-67
2021/05/28 10:08:55;;;;;;;7.07;6.20;;;14.90;99.90;;;;;;4902855;29;20471;-68
2021/05/28 10:11:21;;;;;;;6.43;5.83;;;14.80;99.90;;;;;;4903149;29;20486;-70
2021/05/28 10:13:48;;;;;;;5.33;4.87;;;14.80;99.90;;;;;;4901398;29;20550;-70
2021/05/28 10:16:15;;;;;;;8.00;6.03;;;14.80;99.90;;;;;;4900352;29;20549;-70
2021/05/28 10:18:42;;;;;;;9.00;5.43;;;14.80;99.90;;;;;;4900103;29;20882;-70
2021/05/28 10:21:09;;;;;;;5.43;4.90;;;14.90;99.90;;;;;;4900298;29;20514;-69
2021/05/28 10:23:35;;;;;;;7.30;5.40;;;15.10;99.90;;;;;;4899858;29;20863;-70
2021/05/28 10:26:02;;;;;;;6.80;6.17;;;15.30;99.90;;;;;;4900738;29;20500;-70
2021/05/28 10:28:32;;;;;;;6.63;6.00;;;15.40;99.90;;;;;;4900195;29;20467;-69
2021/05/28 10:30:59;;;;;;;6.37;5.10;;;15.30;99.90;;;;;;4900267;29;20495;-69
2021/05/28 10:33:26;;;;;;;6.17;5.57;;;15.00;99.90;;;;;;4899247;29;20562;-70
2021/05/28 10:35:56;;;;;;;6.97;6.27;;;14.80;99.90;;;;;;4900027;29;20463;-70
2021/05/28 10:38:44;;;;;;;7.40;6.33;;;14.80;99.90;;;;;;4899715;29;20586;-70
2021/05/28 10:41:45;;;;;;;7.50;6.77;;;15.10;99.90;;;;;;4900152;29;20578;-70
2021/05/28 10:44:16;;;;;;;6.97;6.40;;;15.20;99.90;;;;;;4900315;29;20467;-69
2021/05/28 10:47:19;;;;;;;7.80;7.00;;;15.30;99.90;;;;;;4899275;29;20466;-66
2021/05/28 10:49:47;;;;;;;7.50;6.90;;;15.50;99.90;;;;;;4888384;29;20471;-67
2021/05/28 10:52:17;;;;;;;6.83;6.33;;;15.50;99.90;;;;;;4899628;29;20901;-70
2021/05/28 10:54:53;;;;;;;6.80;6.20;;;15.60;99.90;;;;;;4900492;29;20467;-68
2021/05/28 10:57:27;;;;;;;6.43;5.83;;;15.70;99.90;;;;;;4899813;29;20533;-66
2021/05/28 10:59:56;;;;;;;5.93;5.43;;;15.70;99.90;;;;;;4900627;29;20478;-68
2021/05/28 11:02:46;;;;;;;7.80;6.10;;;15.80;99.90;;;;;;4899640;29;20522;-67
2021/05/28 11:05:13;;;;;;;6.83;5.57;;;16.00;99.90;;;;;;4899734;29;20510;-68
2021/05/28 11:07:43;;;;;;;7.83;6.30;;;16.10;99.90;;;;;;4899506;29;20487;-67
2021/05/28 11:10:24;;;;;;;6.47;6.07;;;16.00;99.90;;;;;;4898726;29;20478;-67
2021/05/28 11:12:51;;;;;;;6.93;6.33;;;16.10;99.90;;;;;;4899943;29;20956;-68
2021/05/28 11:15:22;;;;;;;7.13;6.40;;;16.10;99.90;;;;;;4900745;29;20494;-68
2021/05/28 11:17:59;;;;;;;6.63;6.03;;;16.10;99.90;;;;;;4900515;29;20610;-69
2021/05/28 11:20:32;;;;;;;7.00;6.30;;;16.40;99.90;;;;;;4900516;29;20467;-68
2021/05/28 11:22:59;;;;;;;6.30;5.70;;;16.60;99.90;;;;;;4899268;29;20936;-70
2021/05/28 11:25:31;;;;;;;6.27;5.73;;;16.90;99.90;;;;;;4899695;29;20523;-71
2021/05/28 11:28:06;;;;;;;7.90;5.60;;;16.90;99.90;;;;;;4900237;29;20827;-68
2021/05/28 11:30:44;;;;;;;9.33;6.07;;;17.00;99.90;;;;;;4899532;29;20526;-68
2021/05/28 11:33:38;;;;;;;6.90;5.63;;;17.10;99.90;;;;;;4898111;29;20471;-70
2021/05/28 11:36:39;;;;;;;5.50;5.10;;;17.10;99.90;;;;;;4899888;29;20467;-70
2021/05/28 11:39:08;;;;;;;5.97;5.37;;;17.40;99.90;;;;;;4899294;29;20866;-71
2021/05/28 11:41:45;;;;;;;5.70;5.30;;;17.30;99.90;;;;;;4899381;29;20483;-70
2021/05/28 11:44:13;;;;;;;10.83;5.97;;;17.20;99.90;;;;;;4898876;29;20467;-70
2021/05/28 11:46:42;;;;;;;5.87;5.37;;;17.20;99.90;;;;;;4898424;29;20919;-70
2021/05/28 11:49:09;;;;;;;6.60;6.20;;;17.20;99.90;;;;;;4899097;29;20503;-70
2021/05/28 11:51:36;;;;;;;6.63;5.90;;;17.00;99.90;;;;;;4899066;29;20842;-70
2021/05/28 11:54:21;;;;;;;5.43;5.07;;;16.80;99.90;;;;;;4898887;29;20463;-70
2021/05/28 11:56:53;;;;;;;6.23;5.73;;;16.70;99.90;;;;;;4899189;29;20971;-70
2021/05/28 11:59:19;;;;;;;5.43;4.93;;;16.80;99.90;;;;;;4899084;29;20550;-70
2021/05/28 12:01:45;;;;;;;5.57;5.07;;;17.00;99.90;;;;;;4897854;29;20506;-70
2021/05/28 12:04:16;;;;;;;5.60;4.80;;;17.50;99.90;;;;;;4899039;29;20471;-70
2021/05/28 12:06:42;;;;;;;5.43;4.97;;;17.60;99.90;;;;;;4898550;29;20482;-70
2021/05/28 12:09:08;;;;;;;6.37;5.20;;;17.70;99.90;;;;;;4899172;29;20463;-70
2021/05/28 12:11:35;;;;;;;5.87;5.30;;;17.60;99.90;;;;;;4898598;29;20490;-69
2021/05/28 12:14:01;;;;;;;6.23;5.73;;;17.60;99.90;;;;;;4898198;29;20467;-69
2021/05/28 12:16:27;;;;;;;6.43;5.93;;;17.50;99.90;;;;;;4898037;29;20775;-70
2021/05/28 12:18:53;;;;;;;5.73;5.23;;;17.60;99.90;;;;;;4898205;29;20467;-70
2021/05/28 12:21:22;;;;;;;4.37;4.07;;;17.60;99.90;;;;;;4897970;29;20487;-69
2021/05/28 12:23:49;;;;;;;7.20;5.10;;;17.60;99.90;;;;;;4898302;29;20832;-65
2021/05/28 12:26:17;;;;;;;5.73;5.20;;;17.60;99.90;;;;;;4898236;29;20857;-67
2021/05/28 12:28:45;;;;;;;4.57;4.27;;;17.40;99.90;;;;;;4898346;29;20463;-67
2021/05/28 12:31:20;;;;;;;4.60;4.20;;;17.50;99.90;;;;;;4898099;29;20988;-67
2021/05/28 12:33:51;;;;;;;5.27;4.83;;;17.60;99.90;;;;;;4897801;29;20475;-66
2021/05/28 12:36:18;;;;;;;6.47;5.20;;;17.50;99.90;;;;;;4898376;29;20472;-66
2021/05/28 12:38:47;;;;;;;5.37;4.90;;;17.50;99.90;;;;;;4898035;29;20527;-68
2021/05/28 12:41:16;;;;;;;5.53;5.13;;;17.40;99.90;;;;;;4897830;29;20491;-68
2021/05/28 12:43:43;;;;;;;7.10;5.20;;;17.50;99.90;;;;;;4897837;29;20471;-67
2021/05/28 12:46:17;;;;;;;5.87;5.37;;;17.60;99.90;;;;;;4897790;29;20467;-66
2021/05/28 12:48:46;;;;;;;5.77;5.20;;;17.70;99.90;;;;;;4897698;29;20496;-66
2021/05/28 12:51:13;;;;;;;6.27;5.77;;;17.80;99.90;;;;;;4897819;29;20491;-67
2021/05/28 12:53:40;;;;;;;6.87;4.97;;;17.50;99.90;;;;;;4897405;29;20472;-66
2021/05/28 12:56:08;;;;;;;5.77;5.20;;;17.50;99.90;;;;;;4897681;29;20566;-68
2021/05/28 12:58:39;;;;;;;4.93;4.47;;;17.50;99.90;;;;;;4897684;29;20503;-67
2021/05/28 13:01:07;;;;;;;8.30;4.13;;;17.60;99.90;;;;;;4897124;29;20977;-67
2021/05/28 13:03:46;;;;;;;5.60;5.20;;;17.80;99.90;;;;;;4897020;29;20487;-67
2021/05/28 13:06:33;;;;;;;3.73;3.43;;;17.90;99.90;;;;;;4897181;29;20976;-66
2021/05/28 13:09:05;;;;;;;6.07;4.83;;;17.60;99.90;;;;;;4898208;29;20468;-66
2021/05/28 13:12:00;;;;;;;5.40;5.00;;;17.40;99.90;;;;;;4897447;29;20523;-66
2021/05/28 13:14:30;;;;;;;5.20;4.80;;;17.50;99.90;;;;;;4897299;29;20784;-67
2021/05/28 13:17:15;;;;;;;3.80;3.50;;;17.40;99.90;;;;;;4896276;29;21192;-66
2021/05/28 13:19:44;;;;;;;4.40;3.70;;;17.40;99.90;;;;;;4897630;29;20467;-69
2021/05/28 13:22:10;;;;;;;6.17;3.57;;;17.70;99.90;;;;;;4896888;29;20486;-67
2021/05/28 13:24:38;;;;;;;4.23;4.00;;;17.80;99.90;;;;;;4897235;29;20467;-67
2021/05/28 13:27:15;;;;;;;4.93;4.53;;;17.70;99.90;;;;;;4896789;29;20475;-67
2021/05/28 13:29:49;;;;;;;6.23;4.70;;;17.50;99.90;;;;;;4897131;29;20978;-66
2021/05/28 13:32:18;;;;;;;4.73;4.43;;;17.30;99.90;;;;;;4895478;29;20499;-67
2021/05/28 13:34:44;;;;;;;4.93;4.33;;;17.20;99.90;;;;;;4897028;29;20483;-67
2021/05/28 13:37:11;;;;;;;5.23;4.10;;;16.80;99.90;;;;;;4896753;29;20491;-67
2021/05/28 13:39:37;;;;;;;4.83;4.50;;;16.70;99.90;;;;;;4896811;29;20467;-67
2021/05/28 13:42:03;;;;;;;4.17;3.87;;;16.70;99.90;;;;;;4896492;29;20491;-67
2021/05/28 13:44:30;;;;;;;4.53;4.27;;;16.60;99.90;;;;;;4897140;29;20467;-69
2021/05/28 13:46:56;;;;;;;4.30;3.93;;;16.60;99.90;;;;;;4896158;29;20471;-68
2021/05/28 13:49:22;;;;;;;4.53;3.53;;;16.80;99.90;;;;;;4896927;29;20475;-69
2021/05/28 13:51:48;;;;;;;3.67;3.47;;;16.90;99.90;;;;;;4896632;29;20867;-68
2021/05/28 13:54:15;;;;;;;4.60;4.17;;;17.00;99.90;;;;;;4896720;29;20526;-69
2021/05/28 13:56:41;;;;;;;8.50;3.80;;;17.00;99.90;;;;;;4896585;29;20940;-69
2021/05/28 13:59:07;;;;;;;4.40;4.10;;;17.00;99.90;;;;;;4896884;29;20475;-69
2021/05/28 14:01:35;;;;;;;4.30;3.97;;;17.00;99.90;;;;;;4896240;29;20502;-69
2021/05/28 14:04:02;;;;;;;4.63;4.23;;;17.00;99.90;;;;;;4896263;29;20932;-69
2021/05/28 14:06:28;;;;;;;5.40;3.50;;;16.60;99.90;;;;;;4896396;29;20598;-69
2021/05/28 14:08:54;;;;;;;5.07;3.30;;;16.40;99.90;;;;;;4896798;29;20463;-69
2021/05/28 14:11:20;;;;;;;5.97;4.17;;;16.40;99.90;;;;;;4896753;29;20542;-70
2021/05/28 14:13:47;;;;;;;2.80;2.30;;;16.50;99.90;;;;;;4896407;29;20487;-69
2021/05/28 14:16:13;;;;;;;2.50;2.40;;;16.50;99.90;;;;;;4895879;29;20507;-69
2021/05/28 14:18:42;;;;;;;2.67;2.57;;;16.50;99.90;;;;;;4895736;29;20523;-67
2021/05/28 14:21:08;;;;;;;3.57;2.10;;;16.60;99.90;;;;;;4896402;29;20507;-67
2021/05/28 14:23:37;;;;;;;2.47;2.20;;;16.60;99.90;;;;;;4896320;29;20833;-67
2021/05/28 14:26:04;;;;;;;1.70;1.63;;;16.70;99.90;;;;;;4896545;29;20467;-68
2021/05/28 14:28:30;;;;;;;2.30;2.20;;;16.70;99.90;;;;;;4896697;29;20483;-67
2021/05/28 14:30:57;;;;;;;1.97;1.90;;;16.80;99.90;;;;;;4896516;29;20495;-67
2021/05/28 14:33:34;;;;;;;1.90;1.80;;;16.90;99.90;;;;;;4895404;29;20471;-67
2021/05/28 14:36:01;;;;;;;3.37;2.37;;;16.90;99.90;;;;;;4896588;29;20967;-67
2021/05/28 14:38:28;;;;;;;2.07;1.97;;;16.90;99.90;;;;;;4896411;29;20491;-68
2021/05/28 14:40:55;;;;;;;1.87;1.77;;;17.00;99.90;;;;;;4896534;29;20488;-67
2021/05/28 14:43:21;;;;;;;2.63;2.53;;;17.10;99.90;;;;;;4896689;29;20475;-67
2021/05/28 14:45:48;;;;;;;2.77;2.57;;;17.10;99.90;;;;;;4899914;29;20469;-67
2021/05/28 14:48:14;;;;;;;2.70;2.60;;;17.00;99.90;;;;;;4898804;29;20550;-67
2021/05/28 14:50:40;;;;;;;4.23;3.00;;;17.10;99.90;;;;;;4899713;29;21023;-67
2021/05/28 14:53:07;;;;;;;3.50;3.30;;;17.10;99.90;;;;;;4899182;29;20956;-69
2021/05/28 14:55:34;;;;;;;3.23;3.10;;;17.10;99.90;;;;;;4899781;29;20463;-67
2021/05/28 14:58:01;;;;;;;4.17;3.73;;;17.20;99.90;;;;;;4899608;29;20582;-67
2021/05/28 15:00:27;;;;;;;4.27;3.53;;;17.10;99.90;;;;;;4899422;29;20494;-69
2021/05/28 15:02:53;;;;;;;3.40;2.90;;;17.30;99.90;;;;;;4898186;29;20849;-68
2021/05/28 15:05:19;;;;;;;3.33;3.13;;;17.60;99.90;;;;;;4899612;29;20463;-69
2021/05/28 15:07:47;;;;;;;3.33;3.13;;;17.70;99.90;;;;;;4899167;29;20475;-69
2021/05/28 15:10:15;;;;;;;3.23;3.13;;;17.70;99.90;;;;;;4899336;29;20925;-67
2021/05/28 15:12:41;;;;;;;4.00;3.40;;;17.70;99.90;;;;;;4898851;29;20471;-67
2021/05/28 15:15:08;;;;;;;4.80;4.30;;;17.70;99.90;;;;;;4899711;29;20471;-68
2021/05/28 15:17:35;;;;;;;3.50;3.40;;;17.70;99.90;;;;;;4898667;29;20497;-68
2021/05/28 15:20:01;;;;;;;3.83;3.47;;;17.80;99.90;;;;;;4899785;29;20475;-70
2021/05/28 15:22:27;;;;;;;4.13;3.50;;;17.70;99.90;;;;;;4899227;29;20495;-69
2021/05/28 15:24:53;;;;;;;3.57;3.23;;;17.70;99.90;;;;;;4899470;29;20522;-69
2021/05/28 15:27:20;;;;;;;3.93;3.40;;;17.40;99.90;;;;;;4899304;29;20464;-69
2021/05/28 15:29:47;;;;;;;3.37;3.27;;;17.20;99.90;;;;;;4899341;29;20471;-69
2021/05/28 15:32:13;;;;;;;3.20;3.10;;;17.10;99.90;;;;;;4898067;29;20917;-70
2021/05/28 15:34:40;;;;;;;4.20;3.90;;;17.30;99.90;;;;;;4899472;29;20471;-69
2021/05/28 15:37:07;;;;;;;8.33;3.60;;;17.30;99.90;;;;;;4899380;29;20582;-69
2021/05/28 15:39:33;;;;;;;5.00;3.37;;;17.30;99.90;;;;;;4899112;29;20547;-69
2021/05/28 15:42:00;;;;;;;4.20;3.80;;;17.40;99.90;;;;;;4898878;29;21039;-68
2021/05/28 15:44:27;;;;;;;3.63;3.33;;;17.50;99.90;;;;;;4898874;29;20906;-69
2021/05/28 15:46:53;;;;;;;3.43;3.20;;;17.40;99.90;;;;;;4898391;29;20578;-69
2021/05/28 15:49:20;;;;;;;4.43;3.50;;;17.60;99.90;;;;;;4899274;29;20467;-69
2021/05/28 15:51:46;;;;;;;4.60;4.23;;;17.70;99.90;;;;;;4898818;29;20491;-67
2021/05/28 15:54:12;;;;;;;3.70;3.60;;;17.70;99.90;;;;;;4898789;29;20765;-68
2021/05/28 15:56:38;;;;;;;4.70;4.40;;;17.70;99.90;;;;;;4898046;29;20531;-70
2021/05/28 15:59:05;;;;;;;4.70;3.73;;;17.60;99.90;;;;;;4898705;29;21014;-70
2021/05/28 16:01:32;;;;;;;7.07;4.40;;;17.40;99.90;;;;;;4898276;29;20499;-70
2021/05/28 16:04:00;;;;;;;4.00;3.70;;;17.40;99.90;;;;;;4898237;29;20463;-71
2021/05/28 16:06:27;;;;;;;5.27;4.80;;;17.30;99.90;;;;;;4898361;29;20491;-72
2021/05/28 16:08:53;;;;;;;5.03;4.20;;;17.20;99.90;;;;;;4898512;29;20478;-71
2021/05/28 16:11:19;;;;;;;4.67;4.33;;;17.20;99.90;;;;;;4898393;29;20483;-69
2021/05/28 16:13:45;;;;;;;6.87;5.43;;;17.10;99.90;;;;;;4898158;29;20467;-69
2021/05/28 16:16:12;;;;;;;4.10;3.90;;;16.90;99.90;;;;;;4898244;29;20475;-70
2021/05/28 16:18:39;;;;;;;4.30;3.93;;;16.80;99.90;;;;;;4897740;29;20873;-69
2021/05/28 16:21:05;;;;;;;4.47;4.17;;;16.70;99.90;;;;;;4897968;29;20519;-68
2021/05/28 16:23:31;;;;;;;4.60;4.20;;;16.60;99.90;;;;;;4897764;29;20475;-69
2021/05/28 16:25:58;;;;;;;5.33;5.00;;;16.50;99.90;;;;;;4898385;29;20494;-69
2021/05/28 16:28:24;;;;;;;5.20;4.90;;;16.30;99.90;;;;;;4897915;29;20464;-69
2021/05/28 16:30:50;;;;;;;5.27;4.87;;;16.10;99.90;;;;;;4898158;29;20516;-69
2021/05/28 16:33:19;;;;;;;9.43;5.17;;;16.00;99.90;;;;;;4897008;29;20468;-70
2021/05/28 16:35:48;;;;;;;4.90;4.50;;;15.90;99.90;;;;;;4897930;29;20483;-69
2021/05/28 16:38:15;;;;;;;4.30;4.10;;;15.80;99.90;;;;;;4897506;29;20498;-69
2021/05/28 16:40:42;;;;;;;2.63;1.90;;;15.70;99.90;;;;;;4897571;29;20495;-69
2021/05/28 16:43:08;;;;;;;1.40;1.40;;;15.40;99.90;;;;;;4897719;29;20479;-69
2021/05/28 16:45:36;;;;;;;1.47;1.40;;;15.10;99.90;;;;;;4897798;29;20471;-67
2021/05/28 16:48:03;;;;;;;1.10;1.10;;;15.00;99.90;;;;;;4896768;29;20530;-67
2021/05/28 16:50:53;;;;;;;1.57;1.57;;;14.80;99.90;;;;;;4897733;29;20608;-67
2021/05/28 16:53:17;;;;;;;1.27;1.20;;;14.70;99.90;;;;;;4897245;29;20893;-69
2021/05/28 16:55:43;;;;;;;1.20;1.20;;;14.60;99.90;;;;;;4897583;29;20471;-69